createdAt,value
2016-06-17T00:00:59.276Z,53.45
2016-06-17T00:01:59.295Z,53.28
2016-06-17T00:02:59.329Z,53.09
2016-06-17T00:03:59.348Z,53.19
2016-06-17T00:04:59.368Z,52.99
2016-06-17T00:05:59.372Z,52.99
2016-06-17T00:06:59.422Z,53.28
2016-06-17T00:07:59.300Z,53.96
2016-06-17T00:08:59.491Z,53.64
2016-06-17T00:09:59.510Z,53.92
2016-06-17T00:10:59.529Z,54.12
2016-06-17T00:11:59.564Z,54.12
2016-06-17T00:12:59.583Z,54.89
2016-06-17T00:13:59.633Z,54.79
2016-06-17T00:14:59.652Z,54.69
2016-06-17T00:15:59.515Z,54.5
2016-06-17T00:16:59.691Z,54.6
2016-06-17T00:17:59.710Z,54.5
2016-06-17T00:18:59.744Z,54.89
2016-06-17T00:19:59.763Z,54.22
2016-06-17T00:20:59.798Z,54.99
2016-06-17T00:21:59.817Z,54.89
2016-06-17T00:22:59.852Z,55.18
2016-06-17T00:23:59.871Z,55.46
2016-06-17T00:24:59.749Z,55.46
2016-06-17T00:25:59.941Z,55.85
2016-06-17T00:26:59.803Z,55.56
2016-06-17T00:27:59.979Z,56.04
2016-06-17T00:28:59.998Z,56.23
2016-06-17T00:30:00.032Z,56.43
2016-06-17T00:30:59.911Z,56.14
2016-06-17T00:32:00.086Z,56.33
2016-06-17T00:33:00.105Z,56.33
2016-06-17T00:34:00.140Z,56.91
2016-06-17T00:35:00.019Z,57.58
2016-06-17T00:36:00.193Z,57.39
2016-06-17T00:37:00.213Z,57.68
2016-06-17T00:38:00.232Z,57.58
2016-06-17T00:39:00.111Z,57.87
2016-06-17T00:40:00.286Z,57.68
2016-06-17T00:41:00.320Z,57.77
2016-06-17T00:42:00.339Z,58.64
2016-06-17T00:43:00.375Z,58.35
2016-06-17T00:44:00.393Z,58.45
2016-06-17T00:45:00.412Z,59.02
2016-06-17T00:46:00.290Z,59.22
2016-06-17T00:47:00.466Z,59.41
2016-06-17T00:48:00.501Z,59.5
2016-06-17T00:49:00.551Z,59.69
2016-06-17T00:50:00.554Z,59.99
2016-06-17T00:51:00.416Z,60.37
2016-06-17T00:52:00.607Z,60.17
2016-06-17T00:53:00.625Z,60.46
2016-06-17T00:54:00.503Z,60.66
2016-06-17T00:55:00.678Z,61.14
2016-06-17T00:56:00.697Z,60.46
2016-06-17T00:57:00.731Z,61.14
2016-06-17T00:58:00.751Z,60.75
2016-06-17T00:59:00.785Z,61.58
2016-06-17T01:00:00.805Z,60.91
2016-06-17T01:01:00.823Z,61.78
2016-06-17T01:02:00.858Z,61.78
2016-06-17T01:03:00.877Z,61.4
2016-06-17T01:04:00.755Z,61.97
2016-06-17T01:05:00.774Z,62.26
2016-06-17T01:06:00.965Z,62.38
2016-06-17T01:07:00.985Z,62.07
2016-06-17T01:08:01.019Z,62.58
2016-06-17T01:09:01.039Z,63.02
2016-06-17T01:10:01.073Z,63.02
2016-06-17T01:11:01.092Z,63.12
2016-06-17T01:12:01.111Z,62.93
2016-06-17T01:13:01.146Z,62.84
2016-06-17T01:14:01.180Z,63.41
2016-06-17T01:15:01.199Z,63.51
2016-06-17T01:16:01.063Z,63.7
2016-06-17T01:17:01.253Z,63.7
2016-06-17T01:18:01.272Z,63.22
2016-06-17T01:19:01.292Z,64.28
2016-06-17T01:20:01.326Z,64.18
2016-06-17T01:21:01.345Z,64.28
2016-06-17T01:22:01.381Z,63.89
2016-06-17T01:23:01.398Z,64.28
2016-06-17T01:24:01.419Z,63.89
2016-06-17T01:25:01.499Z,64.66
2016-06-17T01:26:01.487Z,64.37
2016-06-17T01:27:01.491Z,64.47
2016-06-17T01:28:01.526Z,64.56
2016-06-17T01:29:01.560Z,64.66
2016-06-17T01:30:01.580Z,65.05
2016-06-17T01:31:01.598Z,65.14
2016-06-17T01:32:01.633Z,65.14
2016-06-17T01:33:01.653Z,65.33
2016-06-17T01:34:01.686Z,65.05
2016-06-17T01:35:01.706Z,64.95
2016-06-17T01:36:01.569Z,64.95
2016-06-17T01:37:01.761Z,64.85
2016-06-17T01:38:01.889Z,65.23
2016-06-17T01:39:01.908Z,65.23
2016-06-17T01:40:01.942Z,65.62
2016-06-17T01:41:01.946Z,65.62
2016-06-17T01:42:01.950Z,65.81
2016-06-17T01:43:01.750Z,65.81
2016-06-17T01:44:01.972Z,66.2
2016-06-17T01:45:01.975Z,66.2
2016-06-17T01:46:02.119Z,65.97
2016-06-17T01:47:01.904Z,66.39
2016-06-17T01:48:02.064Z,66.3
2016-06-17T01:49:02.066Z,66.1
2016-06-17T01:50:02.195Z,65.91
2016-06-17T01:51:02.199Z,66.93
2016-06-17T01:52:02.234Z,67.32
2016-06-17T01:53:02.160Z,66.87
2016-06-17T01:54:02.194Z,66.77
2016-06-17T01:55:02.244Z,66.97
2016-06-17T01:56:02.248Z,66.49
2016-06-17T01:57:02.269Z,66.07
2016-06-17T01:58:02.290Z,66.1
2016-06-17T01:59:02.325Z,66.26
2016-06-17T02:00:02.346Z,66.93
2016-06-17T02:01:02.382Z,66.93
2016-06-17T02:02:02.417Z,67.32
2016-06-17T02:03:02.421Z,66.93
2016-06-17T02:04:02.300Z,66.55
2016-06-17T02:05:02.475Z,66.55
2016-06-17T02:06:02.510Z,67.03
2016-06-17T02:07:02.530Z,67.32
2016-06-17T02:08:02.565Z,66.93
2016-06-17T02:09:02.585Z,66.93
2016-06-17T02:10:02.619Z,66.55
2016-06-17T02:11:02.623Z,66.84
2016-06-17T02:12:02.674Z,67.03
2016-06-17T02:13:02.537Z,67.03
2016-06-17T02:14:02.696Z,67.7
2016-06-17T02:15:02.575Z,67.41
2016-06-17T02:16:02.750Z,67.32
2016-06-17T02:17:02.629Z,67.32
2016-06-17T02:18:02.804Z,67.22
2016-06-17T02:19:02.839Z,67.61
2016-06-17T02:20:02.857Z,67.9
2016-06-17T02:21:02.877Z,68.08
2016-06-17T02:22:02.943Z,67.03
2016-06-17T02:23:02.930Z,67.9
2016-06-17T02:24:02.965Z,67.7
2016-06-17T02:25:03.000Z,68.85
2016-06-17T02:26:03.003Z,68.95
2016-06-17T02:27:02.882Z,68.57
2016-06-17T02:28:03.058Z,67.61
2016-06-17T02:29:03.185Z,68.85
2016-06-17T02:30:03.095Z,68.28
2016-06-17T02:31:03.146Z,67.22
2016-06-17T02:32:03.165Z,68.08
2016-06-17T02:33:03.185Z,68.28
2016-06-17T02:34:03.202Z,67.8
2016-06-17T02:35:03.237Z,67.57
2016-06-17T02:36:03.257Z,67.22
2016-06-17T02:37:03.277Z,68.37
2016-06-17T02:38:03.310Z,67.61
2016-06-17T02:39:03.173Z,68.37
2016-06-17T02:40:03.365Z,67.22
2016-06-17T02:41:03.383Z,68.18
2016-06-17T02:42:03.403Z,68.08
2016-06-17T02:43:03.281Z,68.37
2016-06-17T02:44:03.456Z,68.76
2016-06-17T02:45:03.476Z,69.78
2016-06-17T02:46:03.605Z,69.34
2016-06-17T02:47:03.373Z,69.3
2016-06-17T02:48:03.548Z,68.82
2016-06-17T02:49:03.583Z,68.73
2016-06-17T02:50:03.602Z,68.15
2016-06-17T02:51:03.622Z,68.63
2016-06-17T02:52:03.640Z,69.01
2016-06-17T02:53:03.674Z,68.53
2016-06-17T02:54:03.694Z,68.73
2016-06-17T02:55:03.745Z,69.2
2016-06-17T02:56:03.764Z,68.82
2016-06-17T02:57:03.782Z,68.73
2016-06-17T02:58:03.802Z,68.15
2016-06-17T02:59:03.836Z,68.82
2016-06-17T03:00:03.856Z,69.3
2016-06-17T03:01:03.734Z,68.73
2016-06-17T03:02:03.894Z,68.73
2016-06-17T03:03:03.772Z,69.01
2016-06-17T03:04:03.948Z,68.53
2016-06-17T03:05:03.966Z,68.34
2016-06-17T03:06:04.002Z,68.82
2016-06-17T03:07:04.020Z,68.82
2016-06-17T03:08:04.055Z,68.82
2016-06-17T03:09:04.074Z,69.01
2016-06-17T03:10:04.093Z,68.82
2016-06-17T03:11:04.112Z,68.15
2016-06-17T03:12:04.131Z,68.05
2016-06-17T03:13:04.166Z,68.53
2016-06-17T03:14:04.185Z,68.34
2016-06-17T03:15:04.064Z,68.44
2016-06-17T03:16:04.239Z,68.44
2016-06-17T03:17:04.274Z,69.01
2016-06-17T03:18:04.293Z,69.01
2016-06-17T03:19:04.311Z,69.49
2016-06-17T03:20:04.331Z,69.11
2016-06-17T03:21:04.365Z,68.73
2016-06-17T03:22:04.385Z,69.11
2016-06-17T03:23:04.404Z,68.05
2016-06-17T03:24:04.439Z,68.82
2016-06-17T03:25:04.504Z,69.11
2016-06-17T03:26:04.477Z,69.68
2016-06-17T03:27:04.511Z,69.49
2016-06-17T03:28:04.531Z,69.78
2016-06-17T03:29:04.549Z,69.68
2016-06-17T03:30:04.585Z,69.68
2016-06-17T03:31:04.603Z,69.87
2016-06-17T03:32:04.466Z,70.17
2016-06-17T03:33:04.657Z,70.74
2016-06-17T03:34:04.676Z,69.97
2016-06-17T03:35:04.694Z,70.17
2016-06-17T03:36:04.731Z,69.97
2016-06-17T03:37:04.748Z,70.26
2016-06-17T03:38:04.784Z,69.97
2016-06-17T03:39:04.803Z,69.59
2016-06-17T03:40:04.807Z,69.11
2016-06-17T03:41:04.840Z,69.46
2016-06-17T03:42:04.876Z,69.01
2016-06-17T03:43:04.894Z,69.3
2016-06-17T03:44:04.930Z,69.3
2016-06-17T03:45:04.949Z,69.46
2016-06-17T03:46:04.968Z,69.65
2016-06-17T03:47:04.987Z,69.46
2016-06-17T03:48:05.022Z,69.65
2016-06-17T03:49:04.885Z,69.84
2016-06-17T03:50:05.059Z,70.51
2016-06-17T03:51:05.094Z,69.46
2016-06-17T03:52:05.161Z,68.59
2016-06-17T03:53:05.132Z,68.53
2016-06-17T03:54:05.152Z,68.53
2016-06-17T03:55:05.186Z,67.38
2016-06-17T03:56:05.205Z,67.67
2016-06-17T03:57:05.225Z,66.77
2016-06-17T03:58:05.260Z,67.29
2016-06-17T03:59:05.278Z,66.86
2016-06-17T04:00:05.313Z,67.25
2016-06-17T04:01:05.332Z,67.47
2016-06-17T04:02:05.367Z,67.57
2016-06-17T04:03:05.371Z,67.63
2016-06-17T04:04:05.420Z,68.79
2016-06-17T04:05:05.423Z,68.79
2016-06-17T04:06:05.459Z,68.98
2016-06-17T04:07:05.478Z,68.12
2016-06-17T04:08:05.341Z,68.12
2016-06-17T04:09:05.516Z,68.69
2016-06-17T04:10:05.535Z,69.17
2016-06-17T04:11:05.569Z,68.98
2016-06-17T04:12:05.589Z,68.88
2016-06-17T04:13:05.642Z,69.93
2016-06-17T04:14:05.649Z,68.98
2016-06-17T04:15:05.672Z,69.17
2016-06-17T04:16:05.694Z,68.98
2016-06-17T04:17:05.731Z,68.98
2016-06-17T04:18:05.753Z,69.07
2016-06-17T04:19:05.788Z,68.98
2016-06-17T04:20:05.809Z,70.03
2016-06-17T04:21:05.829Z,70.13
2016-06-17T04:22:05.865Z,68.88
2016-06-17T04:23:05.729Z,67.73
2016-06-17T04:24:05.904Z,68.5
2016-06-17T04:25:05.924Z,68.21
2016-06-17T04:26:05.943Z,68.12
2016-06-17T04:27:05.978Z,68.88
2016-06-17T04:28:05.841Z,68.98
2016-06-17T04:29:06.017Z,69.26
2016-06-17T04:30:06.052Z,69.74
2016-06-17T04:31:06.072Z,69.93
2016-06-17T04:32:06.106Z,69.93
2016-06-17T04:33:06.127Z,69.65
2016-06-17T04:34:06.144Z,69.17
2016-06-17T04:35:06.179Z,69.74
2016-06-17T04:36:06.183Z,68.98
2016-06-17T04:37:06.219Z,68.98
2016-06-17T04:38:06.080Z,68.98
2016-06-17T04:39:06.272Z,69.84
2016-06-17T04:40:06.290Z,69.74
2016-06-17T04:41:06.310Z,69.65
2016-06-17T04:42:06.376Z,69.56
2016-06-17T04:43:06.347Z,68.79
2016-06-17T04:44:06.382Z,68.79
2016-06-17T04:45:06.401Z,69.46
2016-06-17T04:46:06.281Z,68.98
2016-06-17T04:47:06.456Z,69.84
2016-06-17T04:48:06.475Z,69.74
2016-06-17T04:49:06.509Z,68.98
2016-06-17T04:50:06.528Z,70.32
2016-06-17T04:51:06.563Z,69.65
2016-06-17T04:52:06.567Z,70.42
2016-06-17T04:53:06.602Z,71.57
2016-06-17T04:54:06.620Z,73.2
2016-06-17T04:55:06.639Z,73.3
2016-06-17T04:56:06.674Z,73.58
2016-06-17T04:57:06.694Z,74.06
2016-06-17T04:58:06.556Z,74.16
2016-06-17T04:59:06.732Z,74.44
2016-06-17T05:00:06.765Z,74.93
2016-06-17T05:01:06.785Z,74.54
2016-06-17T05:02:06.805Z,75.31
2016-06-17T05:03:06.823Z,75.4
2016-06-17T05:04:06.859Z,75.31
2016-06-17T05:05:06.893Z,74.64
2016-06-17T05:06:06.896Z,74.64
2016-06-17T05:07:06.931Z,75.31
2016-06-17T05:08:06.951Z,75.6
2016-06-17T05:09:06.969Z,76.07
2016-06-17T05:10:07.005Z,75.31
2016-06-17T05:11:06.866Z,75.5
2016-06-17T05:12:07.042Z,75.02
2016-06-17T05:13:07.077Z,74.64
2016-06-17T05:14:07.096Z,73.77
2016-06-17T05:15:07.115Z,73.97
2016-06-17T05:16:07.150Z,73.3
2016-06-17T05:17:07.012Z,73.68
2016-06-17T05:18:07.032Z,74.26
2016-06-17T05:19:07.206Z,74.54
2016-06-17T05:20:07.242Z,74.44
2016-06-17T05:21:07.152Z,74.54
2016-06-17T05:22:07.295Z,74.26
2016-06-17T05:23:07.314Z,74.44
2016-06-17T05:24:07.317Z,74.54
2016-06-17T05:25:07.352Z,74.44
2016-06-17T05:26:07.263Z,74.35
2016-06-17T05:27:07.438Z,73.77
2016-06-17T05:28:07.426Z,74.54
2016-06-17T05:29:07.491Z,74.73
2016-06-17T05:30:07.511Z,75.12
2016-06-17T05:31:07.561Z,75.31
2016-06-17T05:32:07.581Z,74.64
2016-06-17T05:33:07.552Z,74.26
2016-06-17T05:34:07.571Z,73.58
2016-06-17T05:35:07.434Z,74.16
2016-06-17T05:36:07.625Z,74.06
2016-06-17T05:37:07.488Z,73.97
2016-06-17T05:38:07.663Z,74.64
2016-06-17T05:39:07.683Z,73.97
2016-06-17T05:40:07.717Z,73.97
2016-06-17T05:41:07.579Z,74.16
2016-06-17T05:42:07.755Z,75.4
2016-06-17T05:43:07.774Z,74.93
2016-06-17T05:44:07.809Z,74.35
2016-06-17T05:45:07.828Z,74.93
2016-06-17T05:46:07.847Z,74.44
2016-06-17T05:47:07.866Z,74.26
2016-06-17T05:48:07.901Z,73.97
2016-06-17T05:49:07.920Z,74.16
2016-06-17T05:50:07.955Z,74.73
2016-06-17T05:51:07.974Z,73.97
2016-06-17T05:52:07.992Z,73.39
2016-06-17T05:53:08.028Z,73.39
2016-06-17T05:54:07.890Z,73.87
2016-06-17T05:55:08.066Z,73.3
2016-06-17T05:56:08.084Z,73.2
2016-06-17T05:57:08.120Z,74.06
2016-06-17T05:58:08.138Z,75.12
2016-06-17T05:59:08.157Z,74.93
2016-06-17T06:00:08.037Z,75.4
2016-06-17T06:01:08.211Z,74.83
2016-06-17T06:02:08.230Z,74.44
2016-06-17T06:03:08.109Z,74.44
2016-06-17T06:04:08.284Z,75.31
2016-06-17T06:05:08.303Z,76.07
2016-06-17T06:06:08.337Z,76.94
2016-06-17T06:07:08.201Z,76.75
2016-06-17T06:08:08.376Z,77.13
2016-06-17T06:09:08.396Z,76.75
2016-06-17T06:10:08.429Z,76.65
2016-06-17T06:11:08.449Z,76.84
2016-06-17T06:12:08.311Z,76.56
2016-06-17T06:13:08.503Z,76.27
2016-06-17T06:14:08.522Z,75.98
2016-06-17T06:15:08.541Z,75.31
2016-06-17T06:16:08.560Z,75.98
2016-06-17T06:17:08.595Z,74.64
2016-06-17T06:18:08.457Z,73.97
2016-06-17T06:19:08.493Z,75.6
2016-06-17T06:20:08.668Z,75.7
2016-06-17T06:21:08.686Z,75.98
2016-06-17T06:22:08.722Z,75.98
2016-06-17T06:23:08.740Z,76.37
2016-06-17T06:24:08.760Z,76.56
2016-06-17T06:25:08.685Z,75.79
2016-06-17T06:26:08.813Z,76.56
2016-06-17T06:27:08.833Z,76.75
2016-06-17T06:28:08.852Z,77.33
2016-06-17T06:29:08.887Z,76.17
2016-06-17T06:30:08.911Z,77.23
2016-06-17T06:31:08.935Z,75.89
2016-06-17T06:32:08.959Z,76.17
2016-06-17T06:33:08.843Z,76.37
2016-06-17T06:34:09.023Z,77.71
2016-06-17T06:35:08.887Z,77.71
2016-06-17T06:36:08.923Z,76.37
2016-06-17T06:37:09.100Z,76.65
2016-06-17T06:38:09.120Z,76.65
2016-06-17T06:39:09.016Z,77.13
2016-06-17T06:40:09.177Z,76.75
2016-06-17T06:41:09.213Z,77.23
2016-06-17T06:42:09.232Z,76.75
2016-06-17T06:43:09.096Z,76.27
2016-06-17T06:44:09.272Z,76.17
2016-06-17T06:45:09.306Z,75.6
2016-06-17T06:46:09.326Z,75.6
2016-06-17T06:47:09.376Z,75.7
2016-06-17T06:48:09.223Z,75.7
2016-06-17T06:49:09.398Z,76.46
2016-06-17T06:50:09.417Z,75.6
2016-06-17T06:51:09.452Z,75.12
2016-06-17T06:52:09.471Z,75.4
2016-06-17T06:53:09.490Z,76.07
2016-06-17T06:54:09.510Z,75.4
2016-06-17T06:55:09.544Z,75.02
2016-06-17T06:56:09.408Z,75.89
2016-06-17T06:57:09.597Z,75.4
2016-06-17T06:58:09.601Z,74.83
2016-06-17T06:59:09.636Z,75.98
2016-06-17T07:00:09.671Z,76.17
2016-06-17T07:01:09.675Z,75.31
2016-06-17T07:02:09.709Z,75.89
2016-06-17T07:03:09.727Z,75.7
2016-06-17T07:04:09.746Z,76.94
2016-06-17T07:05:09.781Z,75.89
2016-06-17T07:06:09.801Z,75.98
2016-06-17T07:07:09.836Z,76.84
2016-06-17T07:08:09.854Z,75.79
2016-06-17T07:09:09.873Z,76.56
2016-06-17T07:10:09.892Z,75.98
2016-06-17T07:11:09.912Z,75.79
2016-06-17T07:12:09.947Z,76.37
2016-06-17T07:13:09.966Z,77.13
2016-06-17T07:14:09.829Z,77.71
2016-06-17T07:15:09.863Z,78.38
2016-06-17T07:16:10.038Z,78.52
2016-06-17T07:17:10.058Z,78
2016-06-17T07:18:10.077Z,78.03
2016-06-17T07:19:09.954Z,77.84
2016-06-17T07:20:10.131Z,77.94
2016-06-17T07:21:10.164Z,77.84
2016-06-17T07:22:10.184Z,77.36
2016-06-17T07:23:10.219Z,77.33
2016-06-17T07:24:10.223Z,77.56
2016-06-17T07:25:10.258Z,76.59
2016-06-17T07:26:10.276Z,77.33
2016-06-17T07:27:10.310Z,76.37
2016-06-17T07:28:10.346Z,77.33
2016-06-17T07:29:10.350Z,77.94
2016-06-17T07:30:10.383Z,78.47
2016-06-17T07:31:10.388Z,77.65
2016-06-17T07:32:10.421Z,77.84
2016-06-17T07:33:10.441Z,77.17
2016-06-17T07:34:10.460Z,76.56
2016-06-17T07:35:10.496Z,77.71
2016-06-17T07:36:10.514Z,77.08
2016-06-17T07:37:10.564Z,78.03
2016-06-17T07:38:10.598Z,77.84
2016-06-17T07:39:10.602Z,77.46
2016-06-17T07:40:10.465Z,76.79
2016-06-17T07:41:10.484Z,77.36
2016-06-17T07:42:10.660Z,75.92
2016-06-17T07:43:10.694Z,75.92
2016-06-17T07:44:10.557Z,75.25
2016-06-17T07:45:10.592Z,77.36
2016-06-17T07:46:10.767Z,77.17
2016-06-17T07:47:10.787Z,77.75
2016-06-17T07:48:10.805Z,76.59
2016-06-17T07:49:10.825Z,76.69
2016-06-17T07:50:10.859Z,75.82
2016-06-17T07:51:10.878Z,76.31
2016-06-17T07:52:10.897Z,76.79
2016-06-17T07:53:10.933Z,76.31
2016-06-17T07:54:10.795Z,75.92
2016-06-17T07:55:10.814Z,76.02
2016-06-17T07:56:11.005Z,76.31
2016-06-17T07:57:11.024Z,76.79
2016-06-17T07:58:11.043Z,76.79
2016-06-17T07:59:11.078Z,76.79
2016-06-17T08:04:53.724Z,77.36
2016-06-17T08:05:48.197Z,77.17
2016-06-17T08:06:47.559Z,76.59
2016-06-17T08:07:47.578Z,77.08
2016-06-17T08:08:47.613Z,77.08
2016-06-17T08:09:48.241Z,76.59
2016-06-17T08:10:47.652Z,77.56
2016-06-17T08:11:47.671Z,77.36
2016-06-17T08:12:47.704Z,77.56
2016-06-17T08:13:47.724Z,77.84
2016-06-17T08:14:47.743Z,77.84
2016-06-17T08:15:47.762Z,77.75
2016-06-17T08:16:47.796Z,78.61
2016-06-17T08:17:47.816Z,78.32
2016-06-17T08:18:47.867Z,78.03
2016-06-17T08:19:47.870Z,78.42
2016-06-17T08:20:47.889Z,78.9
2016-06-17T08:21:47.908Z,77.65
2016-06-17T08:22:47.942Z,77.26
2016-06-17T08:23:47.962Z,77.36
2016-06-17T08:24:48.606Z,77.56
2016-06-17T08:25:48.016Z,77.36
2016-06-17T08:26:48.035Z,77.65
2016-06-17T08:27:48.054Z,76.79
2016-06-17T08:28:48.073Z,77.65
2016-06-17T08:29:48.108Z,76.31
2016-06-17T08:30:48.127Z,76.69
2016-06-17T08:31:48.146Z,77.56
2016-06-17T08:32:48.916Z,77.46
2016-06-17T08:33:48.200Z,76.79
2016-06-17T08:34:48.220Z,76.59
2016-06-17T08:35:48.253Z,76.21
2016-06-17T08:36:48.273Z,75.92
2016-06-17T08:37:48.308Z,76.5
2016-06-17T08:38:48.967Z,75.92
2016-06-17T08:39:48.362Z,75.92
2016-06-17T08:40:48.552Z,76.4
2016-06-17T08:41:48.399Z,76.31
2016-06-17T08:42:48.434Z,75.73
2016-06-17T08:43:48.453Z,76.31
2016-06-17T08:44:23.906Z,77.36
2016-06-17T08:45:23.238Z,77.84
2016-06-17T08:46:23.257Z,76.88
2016-06-17T08:47:23.293Z,76.88
2016-06-17T08:48:23.937Z,77.46
2016-06-17T08:49:23.972Z,77.17
2016-06-17T08:50:23.991Z,77.08
2016-06-17T08:51:24.010Z,77.94
2016-06-17T08:52:23.405Z,77.46
2016-06-17T08:53:23.440Z,76.31
2016-06-17T08:54:23.458Z,75.82
2016-06-17T08:55:23.493Z,76.5
2016-06-17T08:56:23.513Z,76.31
2016-06-17T08:57:23.531Z,76.69
2016-06-17T08:58:23.552Z,77.65
2016-06-17T08:59:23.569Z,77.08
2016-06-17T09:00:23.605Z,77.75
2016-06-17T09:01:23.639Z,78.61
2016-06-17T09:02:23.659Z,78.99
2016-06-17T09:03:23.694Z,79.57
2016-06-17T09:04:23.697Z,79.09
2016-06-17T09:05:23.716Z,79.09
2016-06-17T09:06:23.751Z,78.9
2016-06-17T09:07:24.410Z,79.22
2016-06-17T09:08:23.883Z,78.99
2016-06-17T09:16:24.157Z,79.71
2016-06-17T09:17:24.099Z,79.42
2016-06-17T09:24:21.332Z,79.03
2016-06-17T09:25:21.350Z,79.71
2016-06-17T09:26:21.979Z,79.9
2016-06-17T09:27:21.358Z,79.32
2016-06-17T09:28:21.783Z,79.99
2016-06-17T09:29:21.381Z,80.28
2016-06-17T09:30:21.290Z,79.42
2016-06-17T09:31:21.434Z,79.42
2016-06-17T09:32:21.344Z,79.99
2016-06-17T09:33:21.379Z,81.15
2016-06-17T09:34:22.023Z,81.19
2016-06-17T09:35:21.433Z,81.76
2016-06-17T09:36:22.061Z,81.67
2016-06-17T09:37:21.470Z,80.8
2016-06-17T09:38:21.490Z,80.22
2016-06-17T09:39:21.510Z,79.84
2016-06-17T09:40:21.544Z,80.13
2016-06-17T09:41:21.565Z,80.61
2016-06-17T09:42:22.272Z,80.32
2016-06-17T09:43:21.620Z,81.09
2016-06-17T09:44:21.641Z,80.42
2016-06-17T09:45:21.677Z,80.51
2016-06-17T09:46:22.353Z,81.76
2016-06-17T09:47:21.717Z,81.38
2016-06-17T09:48:21.735Z,80.46
2016-06-17T09:49:22.396Z,80.84
2016-06-17T09:50:21.899Z,80.94
2016-06-17T09:51:21.919Z,80.94
2016-06-17T09:52:22.469Z,79.88
2016-06-17T09:53:21.973Z,79.88
2016-06-17T09:54:21.976Z,80.27
2016-06-17T09:55:21.964Z,80.07
2016-06-17T09:56:21.983Z,79.79
2016-06-17T09:57:21.986Z,80.46
2016-06-17T09:58:22.618Z,79.69
2016-06-17T09:59:22.140Z,80.46
2016-06-17T10:00:22.082Z,79.98
2016-06-17T10:01:22.089Z,78.92
2016-06-17T10:02:22.110Z,78.92
2016-06-17T10:03:22.224Z,78.63
2016-06-17T10:04:22.229Z,78.73
2016-06-17T10:05:22.264Z,79.98
2016-06-17T10:06:22.268Z,80.46
2016-06-17T10:07:22.288Z,81.04
2016-06-17T10:08:22.291Z,79.69
2016-06-17T10:09:22.296Z,80.27
2016-06-17T10:10:22.316Z,79.92
2016-06-17T10:11:22.335Z,80.27
2016-06-17T10:12:22.401Z,78.92
2016-06-17T10:13:22.389Z,78.86
2016-06-17T10:14:22.408Z,79.05
2016-06-17T10:15:22.444Z,79.25
2016-06-17T10:16:22.479Z,78
2016-06-17T10:17:22.499Z,78.48
2016-06-17T10:18:22.518Z,79.44
2016-06-17T10:19:22.554Z,79.15
2016-06-17T10:20:22.558Z,78.86
2016-06-17T10:21:22.593Z,79.15
2016-06-17T10:22:22.613Z,79.44
2016-06-17T10:23:22.632Z,78.86
2016-06-17T10:24:22.683Z,79.15
2016-06-17T10:25:22.749Z,79.63
2016-06-17T10:26:22.720Z,79.15
2016-06-17T10:27:22.740Z,78.86
2016-06-17T10:28:22.775Z,79.15
2016-06-17T10:29:22.794Z,78.77
2016-06-17T10:30:22.828Z,78.23
2016-06-17T10:31:23.488Z,79.05
2016-06-17T10:32:22.866Z,78.38
2016-06-17T10:33:22.901Z,78.19
2016-06-17T10:34:22.920Z,79
2016-06-17T10:35:23.580Z,78.03
2016-06-17T10:36:22.974Z,78.9
2016-06-17T10:37:23.009Z,78.23
2016-06-17T10:38:23.028Z,79.38
2016-06-17T10:39:23.063Z,79.38
2016-06-17T10:40:23.066Z,79.1
2016-06-17T10:41:23.100Z,79.38
2016-06-17T10:42:23.136Z,79.28
2016-06-17T10:43:23.155Z,78.61
2016-06-17T10:44:23.174Z,79.19
2016-06-17T10:45:23.208Z,78.81
2016-06-17T10:46:23.228Z,78.61
2016-06-17T10:47:23.262Z,78.56
2016-06-17T10:48:23.281Z,77.84
2016-06-17T10:49:23.301Z,78.75
2016-06-17T10:50:23.337Z,79.03
2016-06-17T10:51:23.372Z,78.85
2016-06-17T10:52:23.376Z,78.36
2016-06-17T10:53:23.411Z,78.08
2016-06-17T10:54:23.432Z,78.08
2016-06-17T10:55:23.482Z,77.88
2016-06-17T10:56:23.500Z,77.5
2016-06-17T10:57:23.519Z,77.83
2016-06-17T10:58:23.537Z,77.25
2016-06-17T10:59:23.557Z,77.15
2016-06-17T11:00:23.592Z,76.86
2016-06-17T11:01:23.627Z,76.18
2016-06-17T11:02:24.334Z,76.57
2016-06-17T11:03:23.680Z,76.57
2016-06-17T11:04:24.387Z,76.96
2016-06-17T11:05:23.720Z,77.83
2016-06-17T11:06:23.769Z,77.06
2016-06-17T11:07:23.770Z,77.15
2016-06-17T11:08:23.788Z,77.44
2016-06-17T11:09:23.821Z,76.38
2016-06-17T11:10:23.856Z,76.32
2016-06-17T11:11:23.874Z,76.8
2016-06-17T11:12:24.627Z,77.83
2016-06-17T11:13:23.990Z,78.25
2016-06-17T11:14:24.024Z,77.96
2016-06-17T11:15:24.824Z,76.9
2016-06-17T11:16:24.202Z,77.48
2016-06-17T11:17:24.237Z,77
2016-06-17T11:18:24.224Z,76.71
2016-06-17T11:19:24.228Z,76.23
2016-06-17T11:20:24.248Z,74.91
2016-06-17T11:21:24.234Z,74.88
2016-06-17T11:22:24.285Z,74.82
2016-06-17T11:23:24.367Z,74.24
2016-06-17T11:24:24.308Z,73.85
2016-06-17T11:25:24.390Z,74.14
2016-06-17T11:26:24.315Z,73.75
2016-06-17T11:27:24.380Z,73.66
2016-06-17T11:28:25.009Z,73.57
2016-06-17T11:29:24.434Z,73.08
2016-06-17T11:30:24.438Z,72.79
2016-06-17T11:31:24.504Z,73.66
2016-06-17T11:32:25.069Z,74.24
2016-06-17T11:33:24.465Z,74.47
2016-06-17T11:34:24.468Z,73.5
2016-06-17T11:35:24.502Z,73.41
2016-06-17T11:36:24.522Z,73.21
2016-06-17T11:37:24.556Z,73.31
2016-06-17T11:38:24.576Z,73.41
2016-06-17T11:39:24.611Z,73.6
2016-06-17T11:40:25.254Z,73.11
2016-06-17T11:41:24.664Z,72.73
2016-06-17T11:42:24.681Z,72.06
2016-06-17T11:43:25.325Z,72.63
2016-06-17T11:44:24.751Z,71.58
2016-06-17T11:45:24.770Z,71.77
2016-06-17T11:46:24.788Z,71.38
2016-06-17T11:47:24.821Z,71.38
2016-06-17T11:48:24.841Z,71.58
2016-06-17T11:49:24.875Z,71.48
2016-06-17T11:50:24.894Z,71.77
2016-06-17T11:51:24.929Z,72.25
2016-06-17T11:52:25.573Z,71.38
2016-06-17T11:53:24.979Z,71.28
2016-06-17T11:54:24.998Z,70.61
2016-06-17T11:55:25.033Z,71.09
2016-06-17T11:56:25.053Z,69.74
2016-06-17T11:57:25.087Z,70.13
2016-06-17T11:58:25.106Z,70.42
2016-06-17T11:59:25.141Z,69.64
2016-06-17T12:00:25.159Z,68.01
2016-06-17T12:01:25.195Z,67.91
2016-06-17T12:02:25.213Z,69.84
2016-06-17T12:03:25.248Z,69.45
2016-06-17T12:04:25.268Z,69.93
2016-06-17T12:05:25.302Z,69.2
2016-06-17T12:06:25.337Z,68.49
2016-06-17T12:07:25.356Z,67.52
2016-06-17T12:08:25.375Z,66.36
2016-06-17T12:09:25.410Z,66.56
2016-06-17T12:10:25.429Z,66.27
2016-06-17T12:11:25.464Z,65.78
2016-06-17T12:12:25.529Z,66.66
2016-06-17T12:13:25.532Z,66.17
2016-06-17T12:14:25.568Z,65.59
2016-06-17T12:15:25.572Z,64.82
2016-06-17T12:16:25.594Z,65.01
2016-06-17T12:17:25.632Z,65.3
2016-06-17T12:18:25.653Z,65.3
2016-06-17T12:19:25.691Z,65.69
2016-06-17T12:20:25.711Z,64.63
2016-06-17T12:21:25.748Z,64.63
2016-06-17T12:22:25.768Z,64.05
2016-06-17T12:23:25.804Z,63.76
2016-06-17T12:24:25.824Z,64.63
2016-06-17T12:25:25.859Z,63.28
2016-06-17T12:26:25.894Z,64.92
2016-06-17T12:27:25.930Z,65.01
2016-06-17T12:28:26.574Z,65.91
2016-06-17T12:29:25.969Z,66.88
2016-06-17T12:30:26.004Z,65.72
2016-06-17T12:31:26.648Z,66.59
2016-06-17T12:32:26.058Z,64.56
2016-06-17T12:33:26.091Z,64.95
2016-06-17T12:34:26.720Z,64.21
2016-06-17T12:35:26.130Z,64.79
2016-06-17T12:36:26.196Z,64.89
2016-06-17T12:37:26.184Z,64.01
2016-06-17T12:38:26.219Z,66.66
2016-06-17T12:39:26.253Z,66.36
2016-06-17T12:40:26.897Z,63.66
2016-06-17T12:41:26.308Z,63.21
2016-06-17T12:42:26.326Z,63.76
2016-06-17T12:43:26.361Z,63.5
2016-06-17T12:44:26.380Z,62.53
2016-06-17T12:45:26.414Z,62.82
2016-06-17T12:46:26.434Z,62.76
2016-06-17T12:47:26.468Z,61.21
2016-06-17T12:48:26.487Z,61.89
2016-06-17T12:49:26.522Z,63.18
2016-06-17T12:50:26.557Z,62.47
2016-06-17T12:51:26.576Z,63.46
2016-06-17T12:52:26.611Z,63.37
2016-06-17T12:53:26.661Z,63.66
2016-06-17T12:54:26.728Z,61.72
2016-06-17T12:55:26.684Z,60.78
2016-06-17T12:56:27.359Z,60.3
2016-06-17T12:57:27.363Z,60.91
2016-06-17T12:58:27.397Z,59.36
2016-06-17T12:59:26.807Z,59.46
2016-06-17T13:00:26.841Z,60.17
2016-06-17T13:01:27.485Z,59.39
2016-06-17T13:02:26.895Z,61.24
2016-06-17T13:03:26.915Z,63.07
2016-06-17T13:04:26.949Z,63.37
2016-06-17T13:05:26.984Z,61.91
2016-06-17T13:06:27.003Z,61.33
2016-06-17T13:07:27.037Z,61.24
2016-06-17T13:08:27.681Z,61.33
2016-06-17T13:09:27.716Z,60.85
2016-06-17T13:10:27.111Z,60.85
2016-06-17T13:11:27.145Z,61.24
2016-06-17T13:12:27.180Z,60.1
2016-06-17T13:13:27.199Z,59.13